Terminal Aerodrome Forecast
Issued by NWS Wilmington, OH

Current Version | Previous Version | Text Only | Print | Product List | Glossary Off
Versions: 1 2 3 4 5 6 7 8 9 10 11 12 13 14 15 16 17 18 19

411
FTUS41 KILN 231740
TAFDAY
TAF
KDAY 231740Z 2318/2418 14010KT P6SM BKN100
     FM240000 16006KT P6SM OVC090
     FM240500 19010KT P6SM OVC150 WS020/21040KT
     FM241300 20012KT P6SM SCT030 BKN150
     FM241500 21016G23KT P6SM OVC028=

USA.gov is the U.S. government's official web portal to all federal, state and local government web resources and services.